createdAt,value
2019-03-03T00:00:29.249Z,1006.85
2019-03-03T00:01:29.242Z,1006.92
2019-03-03T00:02:29.237Z,1006.89
2019-03-03T00:03:29.230Z,1006.87
2019-03-03T00:04:29.223Z,1006.92
2019-03-03T00:05:29.223Z,1006.84
2019-03-03T00:06:29.203Z,1006.84
2019-03-03T00:07:29.192Z,1006.89
2019-03-03T00:08:29.189Z,1006.86
2019-03-03T00:09:29.182Z,1006.80
2019-03-03T00:10:29.172Z,1006.89
2019-03-03T00:11:29.160Z,1006.89
2019-03-03T00:12:29.148Z,1006.86
2019-03-03T00:13:29.140Z,1006.84
2019-03-03T00:14:29.140Z,1006.86
2019-03-03T00:15:29.126Z,1006.90
2019-03-03T00:16:29.125Z,1006.86
2019-03-03T00:17:29.114Z,1006.86
2019-03-03T00:18:29.099Z,1006.85
2019-03-03T00:19:29.092Z,1006.86
2019-03-03T00:20:29.082Z,1006.85
2019-03-03T00:21:29.072Z,1006.85
2019-03-03T00:22:29.070Z,1006.85
2019-03-03T00:23:29.060Z,1006.82
2019-03-03T00:24:29.050Z,1006.77
2019-03-03T00:25:29.039Z,1006.74
2019-03-03T00:26:29.036Z,1006.73
2019-03-03T00:27:29.028Z,1006.76
2019-03-03T00:28:29.021Z,1006.77
2019-03-03T00:29:29.053Z,1006.73
2019-03-03T00:30:29.001Z,1006.73
2019-03-03T00:31:28.991Z,1006.77
2019-03-03T00:32:28.984Z,1006.77
2019-03-03T00:33:28.977Z,1006.70
2019-03-03T00:34:28.973Z,1006.77
2019-03-03T00:35:28.962Z,1006.72
2019-03-03T00:36:28.950Z,1006.77
2019-03-03T00:37:28.946Z,1006.76
2019-03-03T00:38:28.931Z,1006.78
2019-03-03T00:39:28.933Z,1006.82
2019-03-03T00:40:28.917Z,1006.75
2019-03-03T00:41:28.909Z,1006.82
2019-03-03T00:42:28.897Z,1006.83
2019-03-03T00:43:28.886Z,1006.77
2019-03-03T00:44:28.881Z,1006.72
2019-03-03T00:45:28.874Z,1006.73
2019-03-03T00:46:28.870Z,1006.74
2019-03-03T00:47:28.861Z,1006.71
2019-03-03T00:48:28.852Z,1006.73
2019-03-03T00:49:28.843Z,1006.66
2019-03-03T00:50:28.833Z,1006.65
2019-03-03T00:51:28.823Z,1006.65
2019-03-03T00:52:28.811Z,1006.69
2019-03-03T00:53:28.804Z,1006.58
2019-03-03T00:54:28.799Z,1006.59
2019-03-03T00:55:28.791Z,1006.66
2019-03-03T00:56:28.780Z,1006.59
2019-03-03T00:57:28.771Z,1006.62
2019-03-03T00:58:28.769Z,1006.57
2019-03-03T00:59:28.757Z,1006.59
2019-03-03T01:00:28.752Z,1006.60
2019-03-03T01:01:28.745Z,1006.58
2019-03-03T01:02:28.730Z,1006.59
2019-03-03T01:03:28.723Z,1006.57
2019-03-03T01:04:28.713Z,1006.61
2019-03-03T01:05:28.707Z,1006.60
2019-03-03T01:06:28.722Z,1006.60
2019-03-03T01:07:28.699Z,1006.54
2019-03-03T01:08:28.683Z,1006.47
2019-03-03T01:09:28.675Z,1006.49
2019-03-03T01:10:28.665Z,1006.54
2019-03-03T01:11:28.652Z,1006.52
2019-03-03T01:12:28.648Z,1006.44
2019-03-03T01:13:28.643Z,1006.44
2019-03-03T01:14:28.629Z,1006.50
2019-03-03T01:15:28.622Z,1006.51
2019-03-03T01:16:28.616Z,1006.44
2019-03-03T01:17:28.607Z,1006.45
2019-03-03T01:18:28.605Z,1006.45
2019-03-03T01:19:28.595Z,1006.41
2019-03-03T01:20:28.579Z,1006.46
2019-03-03T01:21:28.573Z,1006.43
2019-03-03T01:22:28.567Z,1006.46
2019-03-03T01:23:28.561Z,1006.46
2019-03-03T01:24:28.558Z,1006.45
2019-03-03T01:25:28.546Z,1006.47
2019-03-03T01:26:28.536Z,1006.49
2019-03-03T01:27:28.525Z,1006.47
2019-03-03T01:28:28.522Z,1006.41
2019-03-03T01:29:28.515Z,1006.43
2019-03-03T01:30:28.501Z,1006.37
2019-03-03T01:31:28.496Z,1006.37
2019-03-03T01:32:28.482Z,1006.32
2019-03-03T01:33:28.474Z,1006.33
2019-03-03T01:34:28.472Z,1006.34
2019-03-03T01:35:28.463Z,1006.32
2019-03-03T01:36:28.456Z,1006.34
2019-03-03T01:37:28.448Z,1006.28
2019-03-03T01:38:28.436Z,1006.32
2019-03-03T01:39:28.428Z,1006.28
2019-03-03T01:40:28.420Z,1006.26
2019-03-03T01:41:28.413Z,1006.22
2019-03-03T01:42:28.415Z,1006.26
2019-03-03T01:43:28.400Z,1006.23
2019-03-03T01:44:28.390Z,1006.22
2019-03-03T01:45:28.381Z,1006.23
2019-03-03T01:46:28.378Z,1006.19
2019-03-03T01:47:28.369Z,1006.22
2019-03-03T01:48:28.360Z,1006.26
2019-03-03T01:49:28.351Z,1006.19
2019-03-03T01:50:28.339Z,1006.23
2019-03-03T01:51:28.331Z,1006.11
2019-03-03T01:52:28.324Z,1006.14
2019-03-03T01:53:28.315Z,1006.15
2019-03-03T01:54:28.313Z,1006.07
2019-03-03T01:55:28.303Z,1006.08
2019-03-03T01:56:28.296Z,1006.07
2019-03-03T01:57:28.291Z,1006.04
2019-03-03T01:58:28.277Z,1006.12
2019-03-03T01:59:28.272Z,1006.02
2019-03-03T02:00:28.271Z,1005.99
2019-03-03T02:01:28.258Z,1005.95
2019-03-03T02:02:28.245Z,1005.91
2019-03-03T02:03:28.236Z,1005.95
2019-03-03T02:04:28.225Z,1005.92
2019-03-03T02:05:28.217Z,1005.87
2019-03-03T02:06:28.217Z,1005.91
2019-03-03T02:07:28.205Z,1005.89
2019-03-03T02:08:28.197Z,1005.85
2019-03-03T02:09:28.192Z,1005.75
2019-03-03T02:10:28.182Z,1005.81
2019-03-03T02:11:28.171Z,1005.74
2019-03-03T02:12:28.165Z,1005.74
2019-03-03T02:13:28.156Z,1005.76
2019-03-03T02:14:28.159Z,1005.68
2019-03-03T02:15:28.145Z,1005.66
2019-03-03T02:16:28.133Z,1005.67
2019-03-03T02:17:28.125Z,1005.63
2019-03-03T02:18:28.122Z,1005.56
2019-03-03T02:19:28.112Z,1005.50
2019-03-03T02:20:28.102Z,1005.46
2019-03-03T02:21:28.094Z,1005.46
2019-03-03T02:22:28.082Z,1005.44
2019-03-03T02:23:28.072Z,1005.48
2019-03-03T02:24:28.068Z,1005.52
2019-03-03T02:25:28.059Z,1005.51
2019-03-03T02:26:28.054Z,1005.50
2019-03-03T02:27:28.046Z,1005.47
2019-03-03T02:28:28.037Z,1005.42
2019-03-03T02:29:28.030Z,1005.45
2019-03-03T02:30:28.018Z,1005.44
2019-03-03T02:31:28.009Z,1005.43
2019-03-03T02:32:28.004Z,1005.42
2019-03-03T02:33:27.998Z,1005.48
2019-03-03T02:34:27.983Z,1005.52
2019-03-03T02:35:27.976Z,1005.43
2019-03-03T02:36:28.015Z,1005.40
2019-03-03T02:37:27.963Z,1005.41
2019-03-03T02:38:27.960Z,1005.42
2019-03-03T02:39:27.949Z,1005.37
2019-03-03T02:40:27.941Z,1005.37
2019-03-03T02:41:27.933Z,1005.42
2019-03-03T02:42:27.921Z,1005.32
2019-03-03T02:43:27.912Z,1005.30
2019-03-03T02:44:27.901Z,1005.30
2019-03-03T02:45:27.893Z,1005.30
2019-03-03T02:46:27.889Z,1005.26
2019-03-03T02:47:27.883Z,1005.19
2019-03-03T02:48:27.867Z,1005.18
2019-03-03T02:49:27.863Z,1005.21
2019-03-03T02:50:27.858Z,1005.21
2019-03-03T02:51:27.849Z,1005.08
2019-03-03T02:52:27.849Z,1005.17
2019-03-03T02:53:27.835Z,1005.15
2019-03-03T02:54:27.821Z,1005.17
2019-03-03T02:55:27.814Z,1005.24
2019-03-03T02:56:27.807Z,1005.24
2019-03-03T02:57:27.797Z,1005.23
2019-03-03T02:58:27.794Z,1005.19
2019-03-03T02:59:27.783Z,1005.15
2019-03-03T03:00:27.774Z,1005.10
2019-03-03T03:01:27.797Z,1005.04
2019-03-03T03:02:27.755Z,1004.99
2019-03-03T03:03:27.746Z,1004.95
2019-03-03T03:04:27.746Z,1005.06
2019-03-03T03:05:27.735Z,1004.97
2019-03-03T03:06:27.720Z,1005.02
2019-03-03T03:07:27.710Z,1005.01
2019-03-03T03:08:27.710Z,1005.01
2019-03-03T03:09:27.698Z,1004.96
2019-03-03T03:10:27.693Z,1004.98
2019-03-03T03:11:27.685Z,1004.97
2019-03-03T03:12:27.676Z,1005.00
2019-03-03T03:13:27.670Z,1004.96
2019-03-03T03:14:27.657Z,1004.93
2019-03-03T03:15:27.651Z,1004.96
2019-03-03T03:16:27.638Z,1004.93
2019-03-03T03:17:27.632Z,1004.93
2019-03-03T03:18:27.628Z,1004.88
2019-03-03T03:19:27.618Z,1004.93
2019-03-03T03:20:27.605Z,1004.90
2019-03-03T03:21:27.597Z,1004.88
2019-03-03T03:22:27.601Z,1004.96
2019-03-03T03:23:27.583Z,1004.85
2019-03-03T03:24:27.579Z,1004.90
2019-03-03T03:25:27.572Z,1004.87
2019-03-03T03:26:27.558Z,1004.84
2019-03-03T03:27:27.549Z,1004.85
2019-03-03T03:28:27.541Z,1004.85
2019-03-03T03:29:27.532Z,1004.78
2019-03-03T03:30:27.606Z,1004.83
2019-03-03T03:31:27.527Z,1004.85
2019-03-03T03:32:27.532Z,1004.84
2019-03-03T03:33:27.527Z,1004.82
2019-03-03T03:34:27.494Z,1004.81
2019-03-03T03:35:27.484Z,1004.80
2019-03-03T03:36:27.479Z,1004.82
2019-03-03T03:37:27.473Z,1004.75
2019-03-03T03:38:27.461Z,1004.81
2019-03-03T03:39:27.453Z,1004.78
2019-03-03T03:40:27.439Z,1004.74
2019-03-03T03:41:27.435Z,1004.78
2019-03-03T03:42:27.433Z,1004.73
2019-03-03T03:43:27.421Z,1004.77
2019-03-03T03:44:27.413Z,1004.74
2019-03-03T03:45:27.409Z,1004.71
2019-03-03T03:46:27.390Z,1004.72
2019-03-03T03:47:27.383Z,1004.69
2019-03-03T03:48:27.380Z,1004.69
2019-03-03T03:49:27.370Z,1004.73
2019-03-03T03:50:27.368Z,1004.71
2019-03-03T03:51:27.357Z,1004.72
2019-03-03T03:52:27.354Z,1004.74
2019-03-03T03:53:27.337Z,1004.70
2019-03-03T03:54:27.336Z,1004.67
2019-03-03T03:55:27.324Z,1004.72
2019-03-03T03:56:27.322Z,1004.72
2019-03-03T03:57:27.308Z,1004.71
2019-03-03T03:58:27.295Z,1004.67
2019-03-03T03:59:27.285Z,1004.70
2019-03-03T04:00:27.278Z,1004.73
2019-03-03T04:01:27.271Z,1004.67
2019-03-03T04:02:27.269Z,1004.71
2019-03-03T04:03:27.257Z,1004.65
2019-03-03T04:04:27.250Z,1004.66
2019-03-03T04:05:27.244Z,1004.70
2019-03-03T04:06:27.232Z,1004.64
2019-03-03T04:07:27.220Z,1004.68
2019-03-03T04:08:27.217Z,1004.65
2019-03-03T04:09:27.210Z,1004.65
2019-03-03T04:10:27.198Z,1004.60
2019-03-03T04:11:27.195Z,1004.67
2019-03-03T04:12:27.180Z,1004.67
2019-03-03T04:13:27.170Z,1004.63
2019-03-03T04:14:27.169Z,1004.60
2019-03-03T04:15:27.157Z,1004.58
2019-03-03T04:16:27.149Z,1004.56
2019-03-03T04:17:27.143Z,1004.54
2019-03-03T04:18:27.130Z,1004.57
2019-03-03T04:19:27.120Z,1004.57
2019-03-03T04:20:27.115Z,1004.52
2019-03-03T04:21:27.110Z,1004.50
2019-03-03T04:22:27.104Z,1004.46
2019-03-03T04:23:27.093Z,1004.50
2019-03-03T04:24:27.083Z,1004.41
2019-03-03T04:25:27.073Z,1004.46
2019-03-03T04:26:27.070Z,1004.45
2019-03-03T04:27:27.059Z,1004.41
2019-03-03T04:28:27.053Z,1004.40
2019-03-03T04:29:27.043Z,1004.39
2019-03-03T04:30:27.029Z,1004.38
2019-03-03T04:31:27.019Z,1004.39
2019-03-03T04:32:27.021Z,1004.37
2019-03-03T04:33:27.005Z,1004.37
2019-03-03T04:34:27.003Z,1004.31
2019-03-03T04:35:26.994Z,1004.36
2019-03-03T04:36:26.986Z,1004.38
2019-03-03T04:37:26.975Z,1004.32
2019-03-03T04:38:26.960Z,1004.39
2019-03-03T04:39:26.953Z,1004.38
2019-03-03T04:40:26.992Z,1004.42
2019-03-03T04:41:26.940Z,1004.39
2019-03-03T04:42:26.926Z,1004.40
2019-03-03T04:43:26.917Z,1004.38
2019-03-03T04:44:26.912Z,1004.39
2019-03-03T04:45:26.904Z,1004.32
2019-03-03T04:46:26.900Z,1004.32
2019-03-03T04:47:26.891Z,1004.26
2019-03-03T04:48:26.883Z,1004.28
2019-03-03T04:49:26.876Z,1004.26
2019-03-03T04:50:26.862Z,1004.25
2019-03-03T04:51:26.854Z,1004.23
2019-03-03T04:52:26.842Z,1004.24
2019-03-03T04:53:26.833Z,1004.25
2019-03-03T04:54:26.835Z,1004.21
2019-03-03T04:55:26.821Z,1004.19
2019-03-03T04:56:26.810Z,1004.17
2019-03-03T04:57:26.801Z,1004.15
2019-03-03T04:58:26.796Z,1004.12
2019-03-03T04:59:26.787Z,1004.13
2019-03-03T05:00:26.781Z,1004.09
2019-03-03T05:01:26.773Z,1004.11
2019-03-03T05:02:26.760Z,1004.12
2019-03-03T05:03:26.751Z,1004.07
2019-03-03T05:04:26.747Z,1004.07
2019-03-03T05:05:26.735Z,1004.03
2019-03-03T05:06:26.732Z,1004.05
2019-03-03T05:07:26.722Z,1004.03
2019-03-03T05:08:26.715Z,1004.00
2019-03-03T05:09:26.703Z,1004.03
2019-03-03T05:10:26.692Z,1004.01
2019-03-03T05:11:28.157Z,1003.97
2019-03-03T05:12:26.677Z,1003.96
2019-03-03T05:13:26.671Z,1003.92
2019-03-03T05:14:26.663Z,1003.88
2019-03-03T05:15:26.655Z,1003.96
2019-03-03T05:16:26.644Z,1004.02
2019-03-03T05:17:26.635Z,1004.01
2019-03-03T05:18:26.632Z,1003.97
2019-03-03T05:19:26.621Z,1004.04
2019-03-03T05:20:26.614Z,1003.97
2019-03-03T05:21:26.607Z,1003.94
2019-03-03T05:22:26.594Z,1003.95
2019-03-03T05:23:26.586Z,1004.02
2019-03-03T05:24:33.972Z,1004.05
2019-03-03T05:25:26.567Z,1004.05
2019-03-03T05:26:26.564Z,1003.99
2019-03-03T05:27:26.558Z,1003.96
2019-03-03T05:28:26.543Z,1003.99
2019-03-03T05:29:26.533Z,1004.04
2019-03-03T05:30:26.531Z,1003.99
2019-03-03T05:31:26.521Z,1003.93
2019-03-03T05:32:26.520Z,1003.98
2019-03-03T05:33:26.509Z,1003.92
2019-03-03T05:34:26.496Z,1003.86
2019-03-03T05:35:26.491Z,1003.99
2019-03-03T05:36:26.479Z,1003.88
2019-03-03T05:37:26.470Z,1003.91
2019-03-03T05:38:26.467Z,1003.80
2019-03-03T05:39:26.457Z,1003.83
2019-03-03T05:40:26.447Z,1003.75
2019-03-03T05:41:26.439Z,1003.90
2019-03-03T05:42:26.425Z,1003.76
2019-03-03T05:43:26.418Z,1003.76
2019-03-03T05:44:26.415Z,1003.69
2019-03-03T05:45:26.406Z,1003.71
2019-03-03T05:46:26.394Z,1003.71
2019-03-03T05:47:26.383Z,1003.68
2019-03-03T05:48:26.381Z,1003.70
2019-03-03T05:49:26.371Z,1003.75
2019-03-03T05:50:26.367Z,1003.66
2019-03-03T05:51:26.359Z,1003.66
2019-03-03T05:52:26.351Z,1003.72
2019-03-03T05:53:26.342Z,1003.73
2019-03-03T05:54:26.331Z,1003.69
2019-03-03T05:55:26.320Z,1003.67
2019-03-03T05:56:26.308Z,1003.64
2019-03-03T05:57:26.301Z,1003.72
2019-03-03T05:58:26.298Z,1003.68
2019-03-03T05:59:26.289Z,1003.68
2019-03-03T06:00:26.277Z,1003.67
2019-03-03T06:01:26.269Z,1003.61
2019-03-03T06:02:26.265Z,1003.68
2019-03-03T06:03:26.257Z,1003.65
2019-03-03T06:04:26.253Z,1003.63
2019-03-03T06:05:26.242Z,1003.62
2019-03-03T06:06:26.231Z,1003.66
2019-03-03T06:07:26.222Z,1003.63
2019-03-03T06:08:26.213Z,1003.59
2019-03-03T06:09:26.206Z,1003.52
2019-03-03T06:10:26.202Z,1003.52
2019-03-03T06:11:26.194Z,1003.65
2019-03-03T06:12:26.182Z,1003.62
2019-03-03T06:13:26.175Z,1003.56
2019-03-03T06:14:26.162Z,1003.62
2019-03-03T06:15:26.153Z,1003.59
2019-03-03T06:16:26.149Z,1003.62
2019-03-03T06:17:26.141Z,1003.65
2019-03-03T06:18:26.129Z,1003.63
2019-03-03T06:19:26.120Z,1003.68
2019-03-03T06:20:27.832Z,1003.71
2019-03-03T06:21:26.109Z,1003.58
2019-03-03T06:22:26.104Z,1003.68
2019-03-03T06:23:26.094Z,1003.72
2019-03-03T06:24:26.089Z,1003.65
2019-03-03T06:25:26.084Z,1003.61
2019-03-03T06:26:26.069Z,1003.61
2019-03-03T06:27:26.059Z,1003.64
2019-03-03T06:28:26.050Z,1003.59
2019-03-03T06:29:26.041Z,1003.65
2019-03-03T06:30:26.040Z,1003.74
2019-03-03T06:31:26.031Z,1003.69
2019-03-03T06:32:26.017Z,1003.74
2019-03-03T06:33:26.008Z,1003.74
2019-03-03T06:34:26.005Z,1003.75
2019-03-03T06:35:25.997Z,1003.76
2019-03-03T06:36:25.993Z,1003.79
2019-03-03T06:37:25.985Z,1003.69
2019-03-03T06:38:25.971Z,1003.73
2019-03-03T06:39:25.962Z,1003.64
2019-03-03T06:40:25.953Z,1003.72
2019-03-03T06:41:25.944Z,1003.49
2019-03-03T06:42:25.942Z,1003.68
2019-03-03T06:43:25.933Z,1003.59
2019-03-03T06:44:25.928Z,1003.59
2019-03-03T06:45:25.922Z,1003.66
2019-03-03T06:46:25.908Z,1003.64
2019-03-03T06:47:25.900Z,1003.69
2019-03-03T06:48:25.899Z,1003.67
2019-03-03T06:49:25.888Z,1003.64
2019-03-03T06:50:25.877Z,1003.63
2019-03-03T06:51:25.867Z,1003.64
2019-03-03T06:52:25.857Z,1003.66
2019-03-03T06:53:25.849Z,1003.59
2019-03-03T06:54:25.848Z,1003.60
2019-03-03T06:55:25.838Z,1003.53
2019-03-03T06:56:25.829Z,1003.59
2019-03-03T06:57:25.822Z,1003.53
2019-03-03T06:58:25.808Z,1003.60
2019-03-03T06:59:25.799Z,1003.55
2019-03-03T07:00:25.797Z,1003.59
2019-03-03T07:01:25.787Z,1003.54
2019-03-03T07:02:25.784Z,1003.59
2019-03-03T07:03:25.776Z,1003.66
2019-03-03T07:04:25.767Z,1003.61
2019-03-03T07:05:26.143Z,1003.70
2019-03-03T07:06:25.756Z,1003.63
2019-03-03T07:07:25.745Z,1003.66
2019-03-03T07:08:25.734Z,1003.68
2019-03-03T07:09:25.725Z,1003.66
2019-03-03T07:10:25.712Z,1003.67
2019-03-03T07:11:25.704Z,1003.65
2019-03-03T07:12:25.698Z,1003.62
2019-03-03T07:13:25.690Z,1003.57
2019-03-03T07:14:25.687Z,1003.60
2019-03-03T07:15:25.679Z,1003.59
2019-03-03T07:16:26.415Z,1003.67
2019-03-03T07:17:25.665Z,1003.63
2019-03-03T07:18:25.654Z,1003.56
2019-03-03T07:19:25.644Z,1003.65
2019-03-03T07:20:25.641Z,1003.62
2019-03-03T07:21:25.634Z,1003.52
2019-03-03T07:22:25.621Z,1003.62
2019-03-03T07:23:25.616Z,1003.69
2019-03-03T07:24:25.609Z,1003.61
2019-03-03T07:25:25.596Z,1003.64
2019-03-03T07:26:25.593Z,1003.63
2019-03-03T07:27:25.583Z,1003.71
2019-03-03T07:28:25.578Z,1003.65
2019-03-03T07:29:25.568Z,1003.69
2019-03-03T07:30:25.559Z,1003.68
2019-03-03T07:31:25.549Z,1003.59
2019-03-03T07:32:25.544Z,1003.65
2019-03-03T07:33:25.541Z,1003.59
2019-03-03T07:34:25.534Z,1003.60
2019-03-03T07:35:25.531Z,1003.70
2019-03-03T07:36:25.513Z,1003.58
2019-03-03T07:37:25.505Z,1003.62
2019-03-03T07:38:25.503Z,1003.61
2019-03-03T07:39:25.495Z,1003.56
2019-03-03T07:40:25.485Z,1003.64
2019-03-03T07:41:25.483Z,1003.66
2019-03-03T07:42:25.465Z,1003.66
2019-03-03T07:43:25.460Z,1003.66
2019-03-03T07:44:25.487Z,1003.63
2019-03-03T07:45:25.448Z,1003.67
2019-03-03T07:46:25.443Z,1003.69
2019-03-03T07:47:25.435Z,1003.64
2019-03-03T07:48:25.426Z,1003.64
2019-03-03T07:49:25.427Z,1003.70
2019-03-03T07:50:25.407Z,1003.63
2019-03-03T07:51:25.397Z,1003.76
2019-03-03T07:52:25.395Z,1003.66
2019-03-03T07:53:25.390Z,1003.71
2019-03-03T07:54:25.405Z,1003.65
2019-03-03T07:55:25.369Z,1003.62
2019-03-03T07:56:25.364Z,1003.68
2019-03-03T07:57:25.357Z,1003.68
2019-03-03T07:58:25.354Z,1003.69
2019-03-03T07:59:25.348Z,1003.57
2019-03-03T08:00:25.341Z,1003.62
2019-03-03T08:01:25.334Z,1003.65
2019-03-03T08:02:25.321Z,1003.65
2019-03-03T08:03:25.314Z,1003.64
2019-03-03T08:04:25.304Z,1003.67
2019-03-03T08:05:25.298Z,1003.65
2019-03-03T08:06:25.294Z,1003.59
2019-03-03T08:07:25.289Z,1003.73
2019-03-03T08:08:25.275Z,1003.72
2019-03-03T08:09:25.276Z,1003.74
2019-03-03T08:10:25.265Z,1003.71
2019-03-03T08:11:25.257Z,1003.78
2019-03-03T08:12:25.252Z,1003.71
2019-03-03T08:13:25.246Z,1003.65
2019-03-03T08:14:25.234Z,1003.72
2019-03-03T08:15:25.227Z,1003.75
2019-03-03T08:16:25.220Z,1003.73
2019-03-03T08:17:25.210Z,1003.68
2019-03-03T08:18:25.210Z,1003.67
2019-03-03T08:19:25.201Z,1003.73
2019-03-03T08:20:25.191Z,1003.72
2019-03-03T08:21:25.185Z,1003.87
2019-03-03T08:22:25.173Z,1003.71
2019-03-03T08:23:25.168Z,1003.69
2019-03-03T08:24:25.164Z,1003.69
2019-03-03T08:25:25.156Z,1003.71
2019-03-03T08:26:25.145Z,1003.73
2019-03-03T08:27:25.137Z,1003.62
2019-03-03T08:28:25.133Z,1003.74
2019-03-03T08:29:25.126Z,1003.81
2019-03-03T08:30:25.123Z,1003.75
2019-03-03T08:31:25.115Z,1003.70
2019-03-03T08:32:25.110Z,1003.68
2019-03-03T08:33:25.100Z,1003.63
2019-03-03T08:34:25.087Z,1003.69
2019-03-03T08:35:25.083Z,1003.64
2019-03-03T08:36:25.070Z,1003.67
2019-03-03T08:37:25.063Z,1003.67
2019-03-03T08:38:25.061Z,1003.69
2019-03-03T08:39:25.057Z,1003.74
2019-03-03T08:40:25.042Z,1003.64
2019-03-03T08:41:25.035Z,1003.75
2019-03-03T08:42:25.031Z,1003.77
2019-03-03T08:43:25.024Z,1003.70
2019-03-03T08:44:25.018Z,1003.66
2019-03-03T08:45:25.011Z,1003.62
2019-03-03T08:46:25.000Z,1003.65
2019-03-03T08:47:24.989Z,1003.60
2019-03-03T08:48:24.980Z,1003.68
2019-03-03T08:49:24.978Z,1003.75
2019-03-03T08:50:24.971Z,1003.75
2019-03-03T08:51:24.964Z,1003.67
2019-03-03T08:52:24.959Z,1003.72
2019-03-03T08:53:24.949Z,1003.67
2019-03-03T08:54:24.940Z,1003.64
2019-03-03T08:55:24.930Z,1003.65
2019-03-03T08:56:24.927Z,1003.85
2019-03-03T08:57:24.920Z,1003.64
2019-03-03T08:58:24.909Z,1003.69
2019-03-03T08:59:24.901Z,1003.69
2019-03-03T09:00:24.891Z,1003.70
2019-03-03T09:01:24.883Z,1003.67
2019-03-03T09:02:24.882Z,1003.66
2019-03-03T09:03:24.874Z,1003.75
2019-03-03T09:04:24.867Z,1003.64
2019-03-03T09:05:24.858Z,1003.65
2019-03-03T09:06:24.850Z,1003.76
2019-03-03T09:07:24.837Z,1003.67
2019-03-03T09:08:24.833Z,1003.71
2019-03-03T09:09:24.830Z,1003.74
2019-03-03T09:10:25.500Z,1003.61
2019-03-03T09:11:24.818Z,1003.70
2019-03-03T09:12:24.804Z,1003.66
2019-03-03T09:13:24.795Z,1003.70
2019-03-03T09:14:24.797Z,1003.69
2019-03-03T09:15:24.784Z,1003.65
2019-03-03T09:16:24.777Z,1003.65
2019-03-03T09:17:24.768Z,1003.67
2019-03-03T09:18:24.797Z,1003.71
2019-03-03T09:19:24.749Z,1003.74
2019-03-03T09:20:24.742Z,1003.68
2019-03-03T09:21:24.732Z,1003.67
2019-03-03T09:22:24.730Z,1003.65
2019-03-03T09:23:24.721Z,1003.60
2019-03-03T09:24:24.725Z,1003.67
2019-03-03T09:25:24.709Z,1003.75
2019-03-03T09:26:24.699Z,1003.64
2019-03-03T09:27:24.690Z,1003.62
2019-03-03T09:28:24.687Z,1003.63
2019-03-03T09:29:24.679Z,1003.61
2019-03-03T09:30:24.667Z,1003.56
2019-03-03T09:31:24.659Z,1003.52
2019-03-03T09:32:24.651Z,1003.54
2019-03-03T09:33:24.643Z,1003.50
2019-03-03T09:34:24.639Z,1003.65
2019-03-03T09:35:24.632Z,1003.63
2019-03-03T09:36:24.624Z,1003.54
2019-03-03T09:37:24.617Z,1003.61
2019-03-03T09:38:24.603Z,1003.60
2019-03-03T09:39:24.595Z,1003.55
2019-03-03T09:40:24.594Z,1003.53
2019-03-03T09:41:24.584Z,1003.50
2019-03-03T09:42:24.582Z,1003.53
2019-03-03T09:43:24.575Z,1003.58
2019-03-03T09:44:24.561Z,1003.52
2019-03-03T09:45:24.561Z,1003.69
2019-03-03T09:46:24.551Z,1003.52
2019-03-03T09:47:24.544Z,1003.54
2019-03-03T09:48:24.536Z,1003.56
2019-03-03T09:49:24.527Z,1003.49
2019-03-03T09:50:24.517Z,1003.59
2019-03-03T09:51:24.507Z,1003.60
2019-03-03T09:52:24.502Z,1003.52
2019-03-03T09:53:24.497Z,1003.55
2019-03-03T09:54:24.492Z,1003.51
2019-03-03T09:55:24.483Z,1003.61
2019-03-03T09:56:24.475Z,1003.53
2019-03-03T09:57:24.466Z,1003.59
2019-03-03T09:58:24.455Z,1003.53
2019-03-03T09:59:24.445Z,1003.48
2019-03-03T10:00:24.443Z,1003.51
2019-03-03T10:01:24.439Z,1003.53
2019-03-03T10:02:24.424Z,1003.53
2019-03-03T10:03:24.417Z,1003.57
2019-03-03T10:04:24.413Z,1003.49
2019-03-03T10:05:24.404Z,1003.57
2019-03-03T10:06:24.402Z,1003.52
2019-03-03T10:07:24.392Z,1003.49
2019-03-03T10:08:24.385Z,1003.52
2019-03-03T10:09:24.378Z,1003.51
2019-03-03T10:10:24.366Z,1003.58
2019-03-03T10:11:24.358Z,1003.56
2019-03-03T10:12:24.348Z,1003.54
2019-03-03T10:13:24.341Z,1003.46
2019-03-03T10:14:24.337Z,1003.54
2019-03-03T10:15:24.330Z,1003.55
2019-03-03T10:16:24.319Z,1003.54
2019-03-03T10:17:24.311Z,1003.47
2019-03-03T10:18:24.309Z,1003.48
2019-03-03T10:19:24.300Z,1003.55
2019-03-03T10:20:24.295Z,1003.46
2019-03-03T10:21:24.289Z,1003.52
2019-03-03T10:22:24.280Z,1003.48
2019-03-03T10:23:24.269Z,1003.48
2019-03-03T10:24:24.261Z,1003.48
2019-03-03T10:25:24.262Z,1003.52
2019-03-03T10:26:24.251Z,1003.46
2019-03-03T10:27:24.242Z,1003.40
2019-03-03T10:28:24.232Z,1003.47
2019-03-03T10:29:24.226Z,1003.45
2019-03-03T10:30:24.213Z,1003.46
2019-03-03T10:31:24.206Z,1003.44
2019-03-03T10:32:24.202Z,1003.52
2019-03-03T10:33:24.196Z,1003.43
2019-03-03T10:34:24.184Z,1003.42
2019-03-03T10:35:24.174Z,1003.40
2019-03-03T10:36:24.171Z,1003.42
2019-03-03T10:37:24.163Z,1003.41
2019-03-03T10:38:24.160Z,1003.56
2019-03-03T10:39:24.151Z,1003.45
2019-03-03T10:40:24.144Z,1003.48
2019-03-03T10:41:24.138Z,1003.46
2019-03-03T10:42:24.124Z,1003.44
2019-03-03T10:43:24.118Z,1003.42
2019-03-03T10:44:24.107Z,1003.43
2019-03-03T10:45:24.101Z,1003.42
2019-03-03T10:46:24.099Z,1003.47
2019-03-03T10:47:24.089Z,1003.38
2019-03-03T10:48:24.076Z,1003.39
2019-03-03T10:49:24.070Z,1003.44
2019-03-03T10:50:24.066Z,1003.46
2019-03-03T10:51:24.060Z,1003.38
2019-03-03T10:52:24.055Z,1003.39
2019-03-03T10:53:24.046Z,1003.42
2019-03-03T10:54:24.035Z,1003.41
2019-03-03T10:55:24.027Z,1003.35
2019-03-03T10:56:24.020Z,1003.36
2019-03-03T10:57:24.012Z,1003.42
2019-03-03T10:58:24.010Z,1003.40
2019-03-03T10:59:24.000Z,1003.37
2019-03-03T11:00:23.998Z,1003.35
2019-03-03T11:01:23.989Z,1003.39
2019-03-03T11:02:23.978Z,1003.40
2019-03-03T11:03:23.976Z,1003.39
2019-03-03T11:04:23.967Z,1003.39
2019-03-03T11:05:23.965Z,1003.30
2019-03-03T11:06:23.949Z,1003.34
2019-03-03T11:07:23.942Z,1003.37
2019-03-03T11:08:23.937Z,1003.35
2019-03-03T11:09:23.925Z,1003.46
2019-03-03T11:10:23.924Z,1003.41
2019-03-03T11:11:23.915Z,1003.32
2019-03-03T11:12:23.908Z,1003.40
2019-03-03T11:13:24.342Z,1003.37
2019-03-03T11:14:23.891Z,1003.35
2019-03-03T11:15:23.882Z,1003.48
2019-03-03T11:16:23.877Z,1003.35
2019-03-03T11:17:23.871Z,1003.40
2019-03-03T11:18:23.867Z,1003.36
2019-03-03T11:19:23.862Z,1003.37
2019-03-03T11:20:23.851Z,1003.31
2019-03-03T11:21:23.844Z,1003.39
2019-03-03T11:22:23.842Z,1003.35
2019-03-03T11:23:23.833Z,1003.28
2019-03-03T11:24:23.823Z,1003.26
2019-03-03T11:25:23.819Z,1003.30
2019-03-03T11:26:23.806Z,1003.25
2019-03-03T11:27:23.799Z,1003.21
2019-03-03T11:28:24.103Z,1003.25
2019-03-03T11:29:23.784Z,1003.23
2019-03-03T11:30:23.784Z,1003.18
2019-03-03T11:31:23.775Z,1003.18
2019-03-03T11:32:23.773Z,1003.20
2019-03-03T11:33:23.765Z,1003.16
2019-03-03T11:34:23.753Z,1003.15
2019-03-03T11:35:23.747Z,1003.21
2019-03-03T11:36:23.746Z,1003.17
2019-03-03T11:37:23.736Z,1003.18
2019-03-03T11:38:23.731Z,1003.11
2019-03-03T11:39:23.718Z,1003.10
2019-03-03T11:40:23.714Z,1003.14
2019-03-03T11:41:23.701Z,1003.15
2019-03-03T11:42:23.701Z,1003.08
2019-03-03T11:43:23.694Z,1003.07
2019-03-03T11:44:23.687Z,1003.13
2019-03-03T11:45:23.680Z,1003.13
2019-03-03T11:46:23.668Z,1003.01
2019-03-03T11:47:23.711Z,1003.02
2019-03-03T11:48:23.659Z,1003.08
2019-03-03T11:49:23.651Z,1003.01
2019-03-03T11:50:23.650Z,1002.96
2019-03-03T11:51:23.642Z,1003.07
2019-03-03T11:52:23.633Z,1003.06
2019-03-03T11:53:23.630Z,1003.05
2019-03-03T11:54:23.622Z,1002.95
2019-03-03T11:55:23.620Z,1003.09
2019-03-03T11:56:23.608Z,1003.03
2019-03-03T11:57:23.603Z,1003.01
2019-03-03T11:58:23.592Z,1002.99
2019-03-03T11:59:23.584Z,1002.94
2019-03-03T12:00:23.581Z,1002.96
2019-03-03T12:01:23.575Z,1002.96
2019-03-03T12:02:23.572Z,1002.87
2019-03-03T12:03:23.606Z,1002.91
2019-03-03T12:04:23.558Z,1002.88
2019-03-03T12:05:23.553Z,1002.84